createdAt,value
2018-12-11T00:01:00.578Z,97218.28
2018-12-11T00:11:20.067Z,97230.70
2018-12-11T00:21:39.334Z,97236.10
2018-12-11T00:32:00.127Z,97239.08
2018-12-11T00:42:19.216Z,97248.81
2018-12-11T00:52:38.826Z,97238.80
2018-12-11T01:02:57.970Z,97225.31
2018-12-11T01:13:17.341Z,97226.91
2018-12-11T01:23:36.753Z,97228.82
2018-12-11T01:33:56.789Z,97222.58
2018-12-11T01:44:16.653Z,97214.19
2018-12-11T01:54:37.423Z,97216.09
2018-12-11T02:04:57.309Z,97218.02
2018-12-11T02:15:17.046Z,97191.02
2018-12-11T02:25:36.877Z,97209.10
2018-12-11T02:35:56.553Z,97192.87
2018-12-11T02:46:16.255Z,97164.23
2018-12-11T02:56:36.027Z,97153.97
2018-12-11T03:06:55.752Z,97161.79
2018-12-11T03:17:16.084Z,97173.64
2018-12-11T03:27:35.451Z,97177.96
2018-12-11T03:37:54.917Z,97167.16
2018-12-11T03:48:14.425Z,97172.08
2018-12-11T03:58:34.146Z,97157.80
2018-12-11T04:08:57.200Z,97138.61
2018-12-11T04:19:16.909Z,97144.53
2018-12-11T04:29:37.974Z,97131.84
2018-12-11T04:39:57.874Z,97142.17
2018-12-11T04:50:17.605Z,97127.06
2018-12-11T05:00:36.805Z,97129.75
2018-12-11T05:10:56.174Z,97118.93
2018-12-11T05:21:15.627Z,97127.56
2018-12-11T05:31:35.511Z,97127.83
2018-12-11T05:41:56.123Z,97120.78
2018-12-11T05:52:14.954Z,97116.19
2018-12-11T06:02:34.701Z,97115.11
2018-12-11T06:12:55.911Z,97117.23
2018-12-11T06:23:16.024Z,97119.63
2018-12-11T06:33:36.030Z,97123.95
2018-12-11T06:43:55.771Z,97135.01
2018-12-11T06:54:15.529Z,97135.02
2018-12-11T07:04:36.106Z,97165.81
2018-12-11T07:14:55.064Z,97163.33
2018-12-11T07:25:14.514Z,97162.53
2018-12-11T07:35:33.957Z,97167.64
2018-12-11T07:45:53.463Z,97163.86
2018-12-11T07:56:13.450Z,97190.05
2018-12-11T08:06:34.765Z,97181.44
2018-12-11T08:16:53.899Z,97176.59
2018-12-11T08:27:13.812Z,97193.12
2018-12-11T08:37:34.041Z,97189.30
2018-12-11T08:47:53.086Z,97203.63
2018-12-11T08:58:13.431Z,97213.09
2018-12-11T09:08:33.092Z,97230.95
2018-12-11T09:18:53.121Z,97226.08
2018-12-11T09:29:12.451Z,97224.75
2018-12-11T09:39:31.875Z,97242.34
2018-12-11T09:49:52.097Z,97239.88
2018-12-11T10:00:11.821Z,97236.38
2018-12-11T10:10:31.563Z,97239.89
2018-12-11T10:20:51.262Z,97239.33
2018-12-11T10:31:13.297Z,97238.77
2018-12-11T10:41:34.041Z,97258.78
2018-12-11T10:51:54.592Z,97233.95
2018-12-11T11:02:24.260Z,97235.02
2018-12-11T11:12:43.778Z,97228.77
2018-12-11T11:23:04.610Z,97250.91
2018-12-11T11:33:24.928Z,97237.63
2018-12-11T11:43:45.445Z,97244.61
2018-12-11T11:54:05.754Z,97244.05
2018-12-11T12:04:25.110Z,97266.41
2018-12-11T12:14:49.019Z,97255.06
2018-12-11T12:25:06.548Z,97256.08
2018-12-11T12:35:26.088Z,97256.13
2018-12-11T12:45:46.030Z,97252.48
2018-12-11T12:56:05.546Z,97248.70
2018-12-11T13:06:25.898Z,97253.27
2018-12-11T13:16:45.642Z,97262.24
2018-12-11T13:27:05.523Z,97263.59
2018-12-11T13:37:24.892Z,97255.16
2018-12-11T13:47:45.623Z,97248.40
2018-12-11T13:58:05.865Z,97265.22
2018-12-11T14:08:26.483Z,97264.98
2018-12-11T14:18:46.387Z,97283.36
2018-12-11T14:29:06.624Z,97280.42
2018-12-11T14:39:28.854Z,97288.78
2018-12-11T14:49:48.693Z,97287.97
2018-12-11T15:00:10.496Z,97277.70
2018-12-11T15:10:31.033Z,97273.13
2018-12-11T15:20:50.860Z,97289.33
2018-12-11T15:31:11.514Z,97282.86
2018-12-11T15:41:34.221Z,97292.57
2018-12-11T15:51:54.476Z,97290.41
2018-12-11T16:02:14.505Z,97302.04
2018-12-11T16:12:35.162Z,97283.92
2018-12-11T16:22:58.557Z,97290.42
2018-12-11T16:33:22.306Z,97307.42
2018-12-11T16:43:46.387Z,97317.97
2018-12-11T16:54:09.726Z,97302.56
2018-12-11T17:04:32.162Z,97299.04
2018-12-11T17:14:52.333Z,97297.42
2018-12-11T17:25:14.677Z,97302.28
2018-12-11T17:35:35.379Z,97304.42
2018-12-11T17:45:58.009Z,97303.09
2018-12-11T17:56:18.454Z,97311.77
2018-12-11T18:06:38.717Z,97302.02
2018-12-11T18:17:03.279Z,97320.13
2018-12-11T18:27:26.649Z,97320.67
2018-12-11T18:37:49.487Z,97330.67
2018-12-11T18:48:13.490Z,97323.11
2018-12-11T18:58:35.795Z,97322.58
2018-12-11T19:09:05.707Z,97329.07
2018-12-11T19:19:26.564Z,97344.72
2018-12-11T19:29:49.471Z,97348.49
2018-12-11T19:40:14.500Z,97329.59
2018-12-11T19:50:39.558Z,97343.66
2018-12-11T20:01:03.602Z,97334.73
2018-12-11T20:11:25.171Z,97343.66
2018-12-11T20:21:56.243Z,97343.91
2018-12-11T20:32:22.497Z,97318.79
2018-12-11T20:42:49.950Z,97330.40
2018-12-11T20:53:16.927Z,97326.34
2018-12-11T21:03:41.454Z,97339.87
2018-12-11T21:14:02.138Z,97330.95
2018-12-11T21:24:25.518Z,97346.34
2018-12-11T21:34:46.651Z,97338.53
2018-12-11T21:45:07.325Z,97350.67
2018-12-11T21:55:28.527Z,97341.77
2018-12-11T22:05:49.138Z,97336.08
2018-12-11T22:16:11.160Z,97343.38
2018-12-11T22:26:33.275Z,97337.70
2018-12-11T22:36:52.611Z,97326.36
2018-12-11T22:47:12.762Z,97351.23
2018-12-11T22:57:33.111Z,97344.19
2018-12-11T23:07:52.645Z,97350.41
2018-12-11T23:18:12.058Z,97343.91
2018-12-11T23:28:31.650Z,97349.59
2018-12-11T23:38:51.145Z,97339.33
2018-12-11T23:49:10.353Z,97334.47
2018-12-11T23:59:29.559Z,97344.47
